createdAt,value
2019-03-29T00:04:01.249Z,103021.80
2019-03-29T00:06:30.920Z,103016.07
2019-03-29T00:09:00.304Z,103010.09
2019-03-29T00:11:32.315Z,103011.23
2019-03-29T00:14:01.730Z,103019.58
2019-03-29T00:16:31.100Z,103020.39
2019-03-29T00:19:01.341Z,103015.86
2019-03-29T00:21:53.375Z,103011.36
2019-03-29T00:24:22.849Z,103008.74
2019-03-29T00:26:52.559Z,102998.61
2019-03-29T00:29:29.991Z,103010.30
2019-03-29T00:32:09.940Z,102998.36
2019-03-29T00:34:39.320Z,103000.23
2019-03-29T00:37:08.842Z,103003.58
2019-03-29T00:39:38.229Z,103003.52
2019-03-29T00:42:19.890Z,102991.51
2019-03-29T00:44:49.269Z,102991.51
2019-03-29T00:47:18.827Z,102995.23
2019-03-29T00:49:48.212Z,102990.86
2019-03-29T00:52:18.162Z,102990.04
2019-03-29T00:54:47.846Z,102995.02
2019-03-29T00:57:17.201Z,102995.92
2019-03-29T00:59:46.784Z,102990.45
2019-03-29T01:02:16.144Z,102986.81
2019-03-29T01:04:58.012Z,102976.84
2019-03-29T01:07:27.379Z,102976.84
2019-03-29T01:10:16.368Z,102978.27
2019-03-29T01:12:45.980Z,102978.27
2019-03-29T01:15:15.364Z,102967.68
2019-03-29T01:17:57.317Z,102967.47
2019-03-29T01:20:27.005Z,102967.47
2019-03-29T01:22:56.373Z,102973.66
2019-03-29T01:25:26.059Z,102967.67
2019-03-29T01:27:55.422Z,102966.75
2019-03-29T01:30:25.252Z,102966.27
2019-03-29T01:33:14.357Z,102961.52
2019-03-29T01:35:45.329Z,102961.52
2019-03-29T01:38:21.871Z,102959.94
2019-03-29T01:41:17.205Z,102961.36
2019-03-29T01:43:47.179Z,102956.50
2019-03-29T01:46:16.843Z,102957.02
2019-03-29T01:48:46.226Z,102958.10
2019-03-29T01:51:15.957Z,102947.81
2019-03-29T01:53:45.339Z,102947.81
2019-03-29T01:56:15.175Z,102944.51
2019-03-29T01:58:45.345Z,102938.89
2019-03-29T02:01:54.364Z,102937.74
2019-03-29T02:04:30.935Z,102937.74
2019-03-29T02:07:00.304Z,102941.55
2019-03-29T02:09:30.273Z,102933.72
2019-03-29T02:12:07.134Z,102937.92
2019-03-29T02:14:43.198Z,102935.93
2019-03-29T02:17:12.578Z,102937.52
2019-03-29T02:19:43.903Z,102932.00
2019-03-29T02:22:13.285Z,102931.79
2019-03-29T02:24:42.951Z,102929.69
2019-03-29T02:27:12.336Z,102930.78
2019-03-29T02:29:42.282Z,102931.02
2019-03-29T02:32:31.079Z,102933.11
2019-03-29T02:38:02.696Z,102933.19
2019-03-29T02:40:32.285Z,102935.27
2019-03-29T02:43:01.961Z,102930.98
2019-03-29T02:45:31.377Z,102932.13
2019-03-29T02:48:14.100Z,102926.80
2019-03-29T02:50:43.723Z,102926.80
2019-03-29T02:53:13.164Z,102932.73
2019-03-29T02:55:44.156Z,102920.33
2019-03-29T02:58:13.529Z,102930.30
2019-03-29T03:01:02.527Z,102918.43
2019-03-29T03:03:32.261Z,102914.20
2019-03-29T03:06:01.656Z,102920.23
2019-03-29T03:08:45.961Z,102924.41
2019-03-29T03:11:21.511Z,102917.82
2019-03-29T03:13:51.187Z,102920.23
2019-03-29T03:16:22.166Z,102911.92
2019-03-29T03:18:51.593Z,102911.14
2019-03-29T03:21:21.411Z,102914.84
2019-03-29T03:23:51.328Z,102911.37
2019-03-29T03:26:20.755Z,102912.98
2019-03-29T03:28:50.395Z,102912.20
2019-03-29T03:31:20.059Z,102915.89
2019-03-29T03:33:49.437Z,102914.70
2019-03-29T03:36:20.644Z,102908.61
2019-03-29T03:39:09.764Z,102907.86
2019-03-29T03:41:39.424Z,102905.80
2019-03-29T03:44:09.679Z,102911.00
2019-03-29T03:46:39.337Z,102912.88
2019-03-29T03:49:08.720Z,102904.06
2019-03-29T03:51:38.370Z,102905.11
2019-03-29T03:54:07.740Z,102898.13
2019-03-29T03:56:37.459Z,102900.58
2019-03-29T03:59:26.509Z,102900.58
2019-03-29T04:01:56.165Z,102903.81
2019-03-29T04:04:26.673Z,102893.34
2019-03-29T04:06:56.040Z,102901.28
2019-03-29T04:09:27.203Z,102901.28
2019-03-29T04:11:56.630Z,102902.33
2019-03-29T04:14:26.302Z,102902.45
2019-03-29T04:16:55.658Z,102890.53
2019-03-29T04:19:25.771Z,102887.91
2019-03-29T04:21:55.344Z,102891.58
2019-03-29T04:24:43.820Z,102898.45
2019-03-29T04:30:09.389Z,102889.52
2019-03-29T04:32:38.764Z,102890.17
2019-03-29T04:35:09.250Z,102886.30
2019-03-29T04:37:38.606Z,102886.83
2019-03-29T04:40:09.224Z,102882.83
2019-03-29T04:42:45.356Z,102886.95
2019-03-29T04:45:27.417Z,102889.22
2019-03-29T04:48:17.531Z,102890.18
2019-03-29T04:51:06.538Z,102889.48
2019-03-29T04:53:36.470Z,102889.48
2019-03-29T04:56:05.841Z,102892.84
2019-03-29T04:58:35.834Z,102895.19
2019-03-29T05:01:05.600Z,102887.66
2019-03-29T05:03:35.269Z,102888.08
2019-03-29T05:06:04.656Z,102891.71
2019-03-29T05:08:34.080Z,102889.10
2019-03-29T05:11:03.464Z,102892.25
2019-03-29T05:13:32.868Z,102894.30
2019-03-29T05:16:02.382Z,102872.05
2019-03-29T05:18:46.505Z,102884.46
2019-03-29T05:21:22.436Z,102885.41
2019-03-29T05:23:51.808Z,102888.55
2019-03-29T05:26:33.551Z,102890.75
2019-03-29T05:29:02.905Z,102890.75
2019-03-29T05:31:32.593Z,102898.63
2019-03-29T05:34:01.973Z,102893.59
2019-03-29T05:36:31.724Z,102891.44
2019-03-29T05:39:01.115Z,102892.48
2019-03-29T05:41:30.764Z,102892.72
2019-03-29T05:47:35.185Z,102880.31
2019-03-29T05:50:18.187Z,102890.34
2019-03-29T05:53:27.685Z,102879.56
2019-03-29T05:55:57.136Z,102879.56
2019-03-29T05:58:26.535Z,102890.12
2019-03-29T06:00:55.899Z,102898.19
2019-03-29T06:03:26.127Z,102897.19
2019-03-29T06:05:55.628Z,102895.69
2019-03-29T06:08:25.885Z,102895.69
2019-03-29T06:10:55.542Z,102894.34
2019-03-29T06:13:26.318Z,102886.69
2019-03-29T06:15:55.702Z,102895.07
2019-03-29T06:18:25.965Z,102889.64
2019-03-29T06:20:55.626Z,102894.64
2019-03-29T06:23:25.989Z,102892.53
2019-03-29T06:25:55.620Z,102891.79
2019-03-29T06:28:25.950Z,102894.56
2019-03-29T06:30:55.621Z,102897.78
2019-03-29T06:33:25.949Z,102893.74
2019-03-29T06:42:00.772Z,102880.10
2019-03-29T06:44:30.127Z,102881.30
2019-03-29T06:46:59.783Z,102884.22
2019-03-29T06:49:29.774Z,102884.22
2019-03-29T06:51:59.136Z,102875.62
2019-03-29T06:54:28.810Z,102873.23
2019-03-29T06:56:58.451Z,102867.06
2019-03-29T06:59:28.306Z,102869.09
2019-03-29T07:02:03.735Z,102869.09
2019-03-29T07:04:33.105Z,102875.58
2019-03-29T07:07:02.748Z,102868.81
2019-03-29T07:09:32.117Z,102868.81
2019-03-29T07:12:14.014Z,102865.88
2019-03-29T07:14:43.685Z,102865.88
2019-03-29T07:17:13.099Z,102868.63
2019-03-29T07:19:42.751Z,102873.05
2019-03-29T07:22:12.369Z,102872.09
2019-03-29T07:24:42.074Z,102865.62
2019-03-29T07:27:11.737Z,102874.86
2019-03-29T07:32:22.149Z,102872.24
2019-03-29T07:34:51.933Z,102871.55
2019-03-29T07:37:21.326Z,102864.33
2019-03-29T07:39:53.747Z,102869.20
2019-03-29T07:42:41.341Z,102872.14
2019-03-29T07:45:10.942Z,102869.64
2019-03-29T07:47:40.320Z,102859.03
2019-03-29T07:50:10.030Z,102856.09
2019-03-29T07:52:52.735Z,102859.06
2019-03-29T07:55:22.099Z,102859.06
2019-03-29T07:57:51.802Z,102854.00
2019-03-29T08:00:21.168Z,102847.32
2019-03-29T08:02:50.900Z,102846.77
2019-03-29T08:05:20.277Z,102844.92
2019-03-29T08:07:49.891Z,102846.84
2019-03-29T08:10:27.362Z,102833.48
2019-03-29T08:12:57.003Z,102833.48
2019-03-29T08:15:26.382Z,102840.47
2019-03-29T08:17:55.933Z,102842.29
2019-03-29T08:20:40.250Z,102838.43
2019-03-29T08:22:57.355Z,102842.95
2019-03-29T08:25:27.062Z,102840.74
2019-03-29T08:27:57.006Z,102842.83
2019-03-29T08:30:27.946Z,102835.12
2019-03-29T08:32:57.325Z,102837.00
2019-03-29T08:35:28.315Z,102841.28
2019-03-29T08:37:57.878Z,102834.59
2019-03-29T08:40:27.250Z,102840.64
2019-03-29T08:42:57.110Z,102837.89
2019-03-29T08:45:26.550Z,102833.20
2019-03-29T08:47:56.318Z,102835.64
2019-03-29T08:50:26.409Z,102833.59
2019-03-29T08:52:55.932Z,102829.82
2019-03-29T08:55:26.287Z,102828.77
2019-03-29T08:57:55.891Z,102821.38
2019-03-29T09:00:30.718Z,102820.42
2019-03-29T09:03:00.100Z,102820.08
2019-03-29T09:05:29.561Z,102814.76
2019-03-29T09:07:59.537Z,102809.13
2019-03-29T09:10:29.397Z,102808.44
2019-03-29T09:12:58.931Z,102812.64
2019-03-29T09:15:28.315Z,102807.39
2019-03-29T09:17:59.820Z,102809.80
2019-03-29T09:20:29.355Z,102809.80
2019-03-29T09:22:59.241Z,102808.73
2019-03-29T09:25:28.897Z,102811.07
2019-03-29T09:27:58.271Z,102804.70
2019-03-29T09:30:30.840Z,102801.17
2019-03-29T09:33:00.224Z,102804.59
2019-03-29T09:35:29.905Z,102797.64
2019-03-29T09:38:00.332Z,102790.05
2019-03-29T09:40:30.248Z,102786.52
2019-03-29T09:43:07.200Z,102790.78
2019-03-29T09:45:31.283Z,102779.97
2019-03-29T09:48:00.670Z,102775.05
2019-03-29T09:50:30.242Z,102770.00
2019-03-29T09:53:01.463Z,102768.52
2019-03-29T09:55:31.576Z,102768.73
2019-03-29T09:58:01.565Z,102765.63
2019-03-29T10:00:31.231Z,102768.32
2019-03-29T10:03:00.614Z,102768.23
2019-03-29T10:05:31.521Z,102761.21
2019-03-29T10:08:02.139Z,102760.52
2019-03-29T10:10:34.531Z,102750.58
2019-03-29T10:13:04.128Z,102754.34
2019-03-29T10:15:34.221Z,102750.03
2019-03-29T10:18:03.855Z,102739.84
2019-03-29T10:20:33.416Z,102746.78
2019-03-29T10:23:03.090Z,102732.64
2019-03-29T10:25:32.465Z,102734.98
2019-03-29T10:28:02.124Z,102732.58
2019-03-29T10:30:40.725Z,102732.58
2019-03-29T10:33:10.313Z,102727.48
2019-03-29T10:35:51.385Z,102718.33
2019-03-29T10:38:11.217Z,102718.00
2019-03-29T10:40:40.902Z,102716.47
2019-03-29T10:43:10.262Z,102710.30
2019-03-29T10:45:40.746Z,102696.70
2019-03-29T10:48:10.325Z,102696.70
2019-03-29T10:50:39.713Z,102692.62
2019-03-29T10:53:10.819Z,102690.21
2019-03-29T10:55:41.278Z,102686.91
2019-03-29T10:58:10.668Z,102692.52
2019-03-29T11:00:41.278Z,102685.31
2019-03-29T11:03:10.659Z,102682.56
2019-03-29T11:05:40.585Z,102667.91
2019-03-29T11:08:11.979Z,102667.91
2019-03-29T11:10:41.603Z,102672.80
2019-03-29T11:13:13.893Z,102670.97
2019-03-29T11:15:42.498Z,102667.22
2019-03-29T11:18:11.867Z,102654.35
2019-03-29T11:20:41.558Z,102648.23
2019-03-29T11:23:11.251Z,102645.70
2019-03-29T11:25:40.684Z,102640.12
2019-03-29T11:28:10.366Z,102629.14
2019-03-29T11:30:42.410Z,102621.91
2019-03-29T11:33:11.363Z,102621.91
2019-03-29T11:35:42.089Z,102625.05
2019-03-29T11:38:12.030Z,102629.61
2019-03-29T11:40:41.641Z,102627.84
2019-03-29T11:43:25.710Z,102627.81
2019-03-29T11:45:43.669Z,102618.23
2019-03-29T11:48:14.305Z,102619.17
2019-03-29T11:50:43.686Z,102620.58
2019-03-29T11:53:13.400Z,102616.39
2019-03-29T11:55:42.777Z,102611.12
2019-03-29T11:58:12.324Z,102605.93
2019-03-29T12:00:42.082Z,102603.14
2019-03-29T12:03:11.525Z,102608.53
2019-03-29T12:05:40.926Z,102601.64
2019-03-29T12:08:10.434Z,102589.87
2019-03-29T12:10:39.823Z,102585.14
2019-03-29T12:13:09.896Z,102582.47
2019-03-29T12:15:39.648Z,102579.81
2019-03-29T12:18:09.142Z,102584.33
2019-03-29T12:20:39.025Z,102583.99
2019-03-29T12:23:11.233Z,102580.31
2019-03-29T12:25:40.711Z,102576.95
2019-03-29T12:28:11.705Z,102571.35
2019-03-29T12:30:42.055Z,102580.97
2019-03-29T12:33:11.629Z,102565.19
2019-03-29T12:35:42.783Z,102561.26
2019-03-29T12:38:12.493Z,102558.61
2019-03-29T12:40:45.035Z,102549.64
2019-03-29T12:43:13.059Z,102549.97
2019-03-29T12:45:42.785Z,102543.38
2019-03-29T12:48:12.147Z,102543.44
2019-03-29T12:50:41.828Z,102529.47
2019-03-29T12:53:11.480Z,102529.47
2019-03-29T12:55:41.169Z,102530.06
2019-03-29T12:58:10.541Z,102529.87
2019-03-29T13:00:42.021Z,102523.94
2019-03-29T13:03:11.606Z,102523.69
2019-03-29T13:05:41.016Z,102519.60
2019-03-29T13:08:10.569Z,102516.38
2019-03-29T13:10:42.555Z,102510.06
2019-03-29T13:13:11.740Z,102510.41
2019-03-29T13:15:41.960Z,102506.80
2019-03-29T13:18:11.665Z,102508.37
2019-03-29T13:20:41.061Z,102500.77
2019-03-29T13:23:10.537Z,102499.55
2019-03-29T13:25:39.922Z,102502.47
2019-03-29T13:28:10.547Z,102490.41
2019-03-29T13:30:40.232Z,102494.70
2019-03-29T13:33:09.665Z,102487.59
2019-03-29T13:35:39.044Z,102484.41
2019-03-29T13:38:08.625Z,102475.73
2019-03-29T13:40:37.958Z,102473.20
2019-03-29T13:43:07.616Z,102474.59
2019-03-29T13:45:37.000Z,102467.92
2019-03-29T13:48:06.659Z,102466.94
2019-03-29T13:50:36.182Z,102456.61
2019-03-29T13:53:05.689Z,102456.67
2019-03-29T13:55:35.075Z,102448.77
2019-03-29T13:58:04.743Z,102451.35
2019-03-29T14:00:34.127Z,102450.94
2019-03-29T14:03:03.674Z,102445.23
2019-03-29T14:05:34.601Z,102445.81
2019-03-29T14:08:03.987Z,102438.22
2019-03-29T14:10:33.900Z,102435.80
2019-03-29T14:13:03.280Z,102430.33
2019-03-29T14:15:32.980Z,102427.39
2019-03-29T14:18:02.663Z,102427.39
2019-03-29T14:20:35.019Z,102420.81
2019-03-29T14:23:04.886Z,102418.44
2019-03-29T14:25:34.851Z,102419.34
2019-03-29T14:28:04.227Z,102413.63
2019-03-29T14:30:33.901Z,102418.29
2019-03-29T14:33:03.653Z,102408.28
2019-03-29T14:35:33.040Z,102404.94
2019-03-29T14:38:02.716Z,102401.12
2019-03-29T14:40:32.645Z,102406.52
2019-03-29T14:43:02.031Z,102398.44
2019-03-29T14:45:31.694Z,102396.53
2019-03-29T14:48:01.075Z,102395.50
2019-03-29T14:50:30.733Z,102388.36
2019-03-29T14:53:00.102Z,102382.68
2019-03-29T14:55:29.769Z,102376.52
2019-03-29T14:57:59.143Z,102374.75
2019-03-29T15:00:40.790Z,102374.59
2019-03-29T15:03:10.328Z,102370.22
2019-03-29T15:05:40.212Z,102374.11
2019-03-29T15:08:09.790Z,102372.48
2019-03-29T15:10:39.150Z,102360.94
2019-03-29T15:13:08.536Z,102358.41
2019-03-29T15:15:38.203Z,102360.21
2019-03-29T15:18:07.852Z,102358.83
2019-03-29T15:20:52.146Z,102352.13
2019-03-29T15:23:09.990Z,102349.58
2019-03-29T15:25:40.839Z,102347.89
2019-03-29T15:28:10.355Z,102339.32
2019-03-29T15:30:40.288Z,102336.25
2019-03-29T15:33:11.367Z,102331.45
2019-03-29T15:35:41.048Z,102331.44
2019-03-29T15:38:10.729Z,102330.64
2019-03-29T15:40:40.644Z,102328.58
2019-03-29T15:43:10.027Z,102312.83
2019-03-29T15:45:39.390Z,102319.56
2019-03-29T15:48:08.924Z,102310.78
2019-03-29T15:50:38.369Z,102312.16
2019-03-29T15:53:08.922Z,102308.88
2019-03-29T15:55:38.579Z,102300.69
2019-03-29T15:58:08.003Z,102300.69
2019-03-29T16:00:37.368Z,102298.44
2019-03-29T16:03:06.960Z,102308.68
2019-03-29T16:05:36.429Z,102298.39
2019-03-29T16:08:06.249Z,102296.30
2019-03-29T16:10:37.199Z,102279.74
2019-03-29T16:13:06.577Z,102279.74
2019-03-29T16:15:38.220Z,102291.37
2019-03-29T16:18:08.996Z,102287.28
2019-03-29T16:20:38.539Z,102285.72
2019-03-29T16:23:10.052Z,102279.78
2019-03-29T16:25:39.720Z,102273.72
2019-03-29T16:28:10.751Z,102273.99
2019-03-29T16:30:40.303Z,102272.98
2019-03-29T16:33:09.979Z,102274.08
2019-03-29T16:35:39.344Z,102268.41
2019-03-29T16:38:09.050Z,102262.56
2019-03-29T16:40:38.432Z,102268.80
2019-03-29T16:43:08.105Z,102260.95
2019-03-29T16:45:47.654Z,102259.66
2019-03-29T16:48:08.555Z,102259.95
2019-03-29T16:50:38.216Z,102253.62
2019-03-29T16:53:07.604Z,102257.19
2019-03-29T16:55:38.792Z,102254.03
2019-03-29T16:58:08.171Z,102252.59
2019-03-29T17:00:37.536Z,102245.61
2019-03-29T17:03:08.360Z,102253.73
2019-03-29T17:05:38.040Z,102249.77
2019-03-29T17:08:07.416Z,102248.73
2019-03-29T17:10:37.345Z,102234.34
2019-03-29T17:13:06.722Z,102234.34
2019-03-29T17:15:36.642Z,102242.00
2019-03-29T17:18:06.135Z,102246.49
2019-03-29T17:20:35.493Z,102237.70
2019-03-29T17:23:06.291Z,102246.45
2019-03-29T17:25:35.656Z,102247.16
2019-03-29T17:28:05.231Z,102241.69
2019-03-29T17:30:37.312Z,102243.37
2019-03-29T17:33:07.130Z,102239.75
2019-03-29T17:35:36.649Z,102234.44
2019-03-29T17:38:06.118Z,102236.28
2019-03-29T17:40:35.495Z,102239.65
2019-03-29T17:43:05.484Z,102237.91
2019-03-29T17:45:36.136Z,102234.53
2019-03-29T17:48:07.920Z,102234.52
2019-03-29T17:50:37.312Z,102240.56
2019-03-29T17:53:08.285Z,102240.37
2019-03-29T17:55:37.677Z,102243.20
2019-03-29T17:58:07.358Z,102245.55
2019-03-29T18:00:36.765Z,102240.27
2019-03-29T18:03:06.236Z,102233.69
2019-03-29T18:05:35.634Z,102233.87
2019-03-29T18:08:05.139Z,102236.11
2019-03-29T18:10:34.830Z,102242.84
2019-03-29T18:13:04.296Z,102247.23
2019-03-29T18:15:33.678Z,102248.61
2019-03-29T18:18:03.270Z,102244.02
2019-03-29T18:20:32.646Z,102248.25
2019-03-29T18:23:02.218Z,102247.27
2019-03-29T18:25:31.855Z,102245.16
2019-03-29T18:28:02.237Z,102243.31
2019-03-29T18:30:36.763Z,102243.44
2019-03-29T18:33:08.273Z,102247.64
2019-03-29T18:35:37.720Z,102247.63
2019-03-29T18:38:07.267Z,102252.20
2019-03-29T18:40:36.951Z,102250.84
2019-03-29T18:43:06.381Z,102257.95
2019-03-29T18:45:35.760Z,102255.94
2019-03-29T18:48:05.414Z,102250.23
2019-03-29T18:50:35.449Z,102250.97
2019-03-29T18:53:05.783Z,102253.28
2019-03-29T18:55:35.589Z,102256.36
2019-03-29T18:58:06.022Z,102256.33
2019-03-29T19:00:36.037Z,102257.16
2019-03-29T19:03:05.430Z,102258.93
2019-03-29T19:05:34.883Z,102257.50
2019-03-29T19:08:04.408Z,102255.59
2019-03-29T19:10:33.789Z,102250.56
2019-03-29T19:13:03.729Z,102256.08
2019-03-29T19:15:33.435Z,102256.87
2019-03-29T19:18:02.809Z,102253.67
2019-03-29T19:20:32.484Z,102250.55
2019-03-29T19:23:02.413Z,102244.86
2019-03-29T19:25:31.789Z,102251.66
2019-03-29T19:28:01.409Z,102246.03
2019-03-29T19:30:30.795Z,102249.06
2019-03-29T19:33:00.645Z,102244.99
2019-03-29T19:35:30.024Z,102240.63
2019-03-29T19:37:59.486Z,102246.67
2019-03-29T19:40:28.865Z,102239.67
2019-03-29T19:42:58.382Z,102247.93
2019-03-29T19:45:27.877Z,102242.23
2019-03-29T19:47:57.771Z,102243.03
2019-03-29T19:50:28.085Z,102238.24
2019-03-29T19:52:57.564Z,102240.03
2019-03-29T19:55:28.131Z,102238.73
2019-03-29T19:57:57.573Z,102242.45
2019-03-29T20:00:38.947Z,102245.67
2019-03-29T20:03:09.978Z,102241.27
2019-03-29T20:05:40.620Z,102246.25
2019-03-29T20:08:09.986Z,102235.72
2019-03-29T20:10:41.025Z,102240.67
2019-03-29T20:13:11.475Z,102232.78
2019-03-29T20:15:40.859Z,102242.48
2019-03-29T20:18:10.497Z,102233.72
2019-03-29T20:20:40.159Z,102229.96
2019-03-29T20:23:09.861Z,102233.17
2019-03-29T20:25:39.518Z,102236.95
2019-03-29T20:28:08.977Z,102233.16
2019-03-29T20:30:39.607Z,102228.34
2019-03-29T20:33:09.021Z,102232.81
2019-03-29T20:35:38.681Z,102233.00
2019-03-29T20:38:08.065Z,102231.37
2019-03-29T20:40:37.681Z,102223.62
2019-03-29T20:43:07.056Z,102221.43
2019-03-29T20:45:36.723Z,102223.48
2019-03-29T20:48:06.099Z,102219.22
2019-03-29T20:50:35.807Z,102216.64
2019-03-29T20:53:06.124Z,102214.69
2019-03-29T20:55:35.794Z,102207.55
2019-03-29T20:58:06.536Z,102209.67
2019-03-29T21:00:37.171Z,102204.55
2019-03-29T21:03:06.664Z,102206.66
2019-03-29T21:05:37.314Z,102202.21
2019-03-29T21:08:06.700Z,102200.78
2019-03-29T21:10:36.058Z,102194.31
2019-03-29T21:13:07.208Z,102189.76
2019-03-29T21:15:37.095Z,102192.24
2019-03-29T21:18:06.630Z,102191.24
2019-03-29T21:20:35.995Z,102192.48
2019-03-29T21:23:06.797Z,102191.61
2019-03-29T21:25:36.164Z,102186.20
2019-03-29T21:28:05.655Z,102183.27
2019-03-29T21:30:36.036Z,102179.66
2019-03-29T21:33:05.648Z,102181.11
2019-03-29T21:35:35.368Z,102174.73
2019-03-29T21:38:04.777Z,102187.62
2019-03-29T21:40:34.385Z,102179.72
2019-03-29T21:43:03.763Z,102180.58
2019-03-29T21:45:33.198Z,102169.98
2019-03-29T21:48:26.874Z,102169.36
2019-03-29T21:50:34.219Z,102172.33
2019-03-29T21:53:03.989Z,102174.44
2019-03-29T21:55:33.655Z,102171.62
2019-03-29T21:58:03.096Z,102177.48
2019-03-29T22:00:32.764Z,102166.86
2019-03-29T22:03:02.457Z,102166.86
2019-03-29T22:05:31.997Z,102174.19
2019-03-29T22:08:01.378Z,102177.70
2019-03-29T22:10:31.034Z,102177.27
2019-03-29T22:13:00.755Z,102178.48
2019-03-29T22:15:30.120Z,102173.27
2019-03-29T22:17:59.761Z,102174.22
2019-03-29T22:20:29.741Z,102172.92
2019-03-29T22:22:59.111Z,102172.92
2019-03-29T22:25:29.251Z,102161.90
2019-03-29T22:27:58.917Z,102163.84
2019-03-29T22:30:28.311Z,102163.84
2019-03-29T22:32:57.790Z,102155.71
2019-03-29T22:35:28.115Z,102155.71
2019-03-29T22:37:57.791Z,102155.77
2019-03-29T22:40:28.930Z,102157.70
2019-03-29T22:42:58.309Z,102156.76
2019-03-29T22:45:28.461Z,102155.02
2019-03-29T22:47:57.833Z,102153.73
2019-03-29T22:50:28.252Z,102150.63
2019-03-29T22:52:58.208Z,102147.58
2019-03-29T22:55:28.271Z,102147.58
2019-03-29T22:57:59.437Z,102148.97
2019-03-29T23:00:39.151Z,102148.97
2019-03-29T23:03:10.159Z,102147.47
2019-03-29T23:05:40.127Z,102147.47
2019-03-29T23:08:09.501Z,102146.37
2019-03-29T23:10:39.161Z,102148.05
2019-03-29T23:13:08.837Z,102147.44
2019-03-29T23:15:38.198Z,102140.55
2019-03-29T23:18:07.873Z,102134.20
2019-03-29T23:20:37.237Z,102138.88
2019-03-29T23:23:08.042Z,102120.40
2019-03-29T23:25:37.414Z,102120.40
2019-03-29T23:28:07.403Z,102126.65
2019-03-29T23:30:37.079Z,102126.65
2019-03-29T23:33:06.456Z,102125.94
2019-03-29T23:35:37.048Z,102113.98
2019-03-29T23:38:06.433Z,102113.98
2019-03-29T23:40:37.430Z,102118.50
2019-03-29T23:43:07.031Z,102111.44
2019-03-29T23:45:36.405Z,102111.44
2019-03-29T23:48:05.997Z,102097.91
2019-03-29T23:50:35.906Z,102097.91
2019-03-29T23:53:07.090Z,102102.89
2019-03-29T23:55:36.459Z,102102.89
2019-03-29T23:58:06.313Z,102099.44
